createdAt,value
2022-09-07T00:00:22.931Z,102079.72
2022-09-07T00:02:49.797Z,102082.50
2022-09-07T00:05:16.669Z,102079.31
2022-09-07T00:07:43.461Z,102075.78
2022-09-07T00:10:10.285Z,102066.38
2022-09-07T00:12:37.153Z,102062.53
2022-09-07T00:15:08.316Z,102065.13
2022-09-07T00:17:35.676Z,102055.16
2022-09-07T00:20:03.168Z,102066.91
2022-09-07T00:22:30.326Z,102061.03
2022-09-07T00:24:57.109Z,102057.75
2022-09-07T00:27:23.938Z,102064.69
2022-09-07T00:29:50.766Z,102048.75
2022-09-07T00:32:17.581Z,102064.09
2022-09-07T00:34:45.603Z,102060.06
2022-09-07T00:37:12.408Z,102061.59
2022-09-07T00:39:39.219Z,102055.78
2022-09-07T00:42:06.143Z,102057.28
2022-09-07T00:45:03.885Z,102056.72
2022-09-07T00:47:52.275Z,102053.66
2022-09-07T00:50:39.360Z,102057.03
2022-09-07T00:53:11.932Z,102047.72
2022-09-07T00:55:39.301Z,102051.41
2022-09-07T00:58:06.118Z,102053.50
2022-09-07T01:00:32.888Z,102057.44
2022-09-07T01:03:00.032Z,102035.13
2022-09-07T01:05:47.119Z,102045.53
2022-09-07T01:08:13.920Z,102053.09
2022-09-07T01:10:40.857Z,102063.59
2022-09-07T01:13:08.532Z,102053.09
2022-09-07T01:16:00.728Z,102052.31
2022-09-07T01:18:52.115Z,102062.72
2022-09-07T01:21:28.977Z,102050.22
2022-09-07T01:24:14.247Z,102056.25
2022-09-07T01:26:49.676Z,102054.50
2022-09-07T01:29:34.407Z,102054.97
2022-09-07T01:32:19.397Z,102053.44
2022-09-07T01:34:47.700Z,102047.50
2022-09-07T01:37:14.387Z,102048.34
2022-09-07T01:39:49.995Z,102041.16
2022-09-07T01:42:18.126Z,102037.66
2022-09-07T01:44:53.719Z,102050.94
2022-09-07T01:47:30.538Z,102044.91
2022-09-07T01:50:17.457Z,102030.28
2022-09-07T01:53:18.005Z,102032.38
2022-09-07T01:55:44.797Z,102035.75
2022-09-07T01:58:45.155Z,102030.59
2022-09-07T02:01:29.244Z,102033.53
2022-09-07T02:04:05.317Z,102030.69
2022-09-07T02:06:45.155Z,102027.16
2022-09-07T02:09:31.597Z,102027.47
2022-09-07T02:11:58.416Z,102031.00
2022-09-07T02:14:35.638Z,102028.03
2022-09-07T02:17:08.348Z,102027.22
2022-09-07T02:19:42.253Z,102031.88
2022-09-07T02:22:14.732Z,102026.75
2022-09-07T02:24:43.644Z,102026.91
2022-09-07T02:27:38.895Z,102016.78
2022-09-07T02:30:06.245Z,102017.75
2022-09-07T02:32:33.124Z,102021.09
2022-09-07T02:34:59.907Z,102018.28
2022-09-07T02:37:27.825Z,102007.06
2022-09-07T02:39:54.854Z,102012.63
2022-09-07T02:42:21.670Z,102020.34
2022-09-07T02:44:48.454Z,102020.50
2022-09-07T02:47:23.709Z,102006.75
2022-09-07T02:50:09.045Z,102020.41
2022-09-07T02:52:41.727Z,102016.25
2022-09-07T02:55:30.089Z,102016.63
2022-09-07T02:58:16.978Z,102008.91
2022-09-07T03:01:02.437Z,102007.97
2022-09-07T03:03:52.309Z,102005.31
2022-09-07T03:06:35.199Z,102001.03
2022-09-07T03:09:04.507Z,101999.28
2022-09-07T03:11:31.361Z,102000.34
2022-09-07T03:14:17.933Z,102003.69
2022-09-07T03:16:44.812Z,101982.47
2022-09-07T03:19:11.621Z,101979.34
2022-09-07T03:21:38.446Z,101996.44
2022-09-07T03:24:05.750Z,101998.44
2022-09-07T03:26:32.602Z,102006.84
2022-09-07T03:29:00.119Z,101988.06
2022-09-07T03:31:26.964Z,102002.63
2022-09-07T03:33:54.838Z,101995.84
2022-09-07T03:36:21.694Z,101988.38
2022-09-07T03:38:48.470Z,101999.44
2022-09-07T03:41:15.269Z,101985.91
2022-09-07T03:43:42.607Z,102013.63
2022-09-07T03:46:10.640Z,102003.66
2022-09-07T03:48:38.877Z,102007.13
2022-09-07T03:51:07.583Z,102010.75
2022-09-07T03:53:35.627Z,102010.81
2022-09-07T03:56:04.349Z,102013.34
2022-09-07T03:58:31.873Z,102014.47
2022-09-07T04:00:59.468Z,102025.53
2022-09-07T04:03:26.406Z,102022.25
2022-09-07T04:05:53.235Z,102032.34
2022-09-07T04:08:20.035Z,102019.91
2022-09-07T04:10:46.870Z,102028.16
2022-09-07T04:13:13.688Z,102028.06
2022-09-07T04:15:40.476Z,102034.84
2022-09-07T04:18:07.265Z,102026.94
2022-09-07T04:20:34.065Z,102030.84
2022-09-07T04:23:00.840Z,102017.47
2022-09-07T04:25:27.668Z,102018.59
2022-09-07T04:27:56.206Z,102026.63
2022-09-07T04:30:23.055Z,102023.47
2022-09-07T04:32:49.865Z,102014.69
2022-09-07T04:35:16.737Z,102013.03
2022-09-07T04:37:44.627Z,102007.78
2022-09-07T04:40:11.779Z,102008.31
2022-09-07T04:42:38.725Z,102000.16
2022-09-07T04:45:06.437Z,102002.03
2022-09-07T04:47:33.271Z,101990.38
2022-09-07T04:50:00.060Z,101999.75
2022-09-07T04:52:26.945Z,101997.94
2022-09-07T04:54:53.728Z,102000.31
2022-09-07T04:57:25.932Z,102004.16
2022-09-07T04:59:52.721Z,101993.81
2022-09-07T05:02:19.612Z,101984.63
2022-09-07T05:04:46.470Z,101993.47
2022-09-07T05:07:13.287Z,101977.34
2022-09-07T05:09:40.139Z,101969.03
2022-09-07T05:12:07.032Z,101970.72
2022-09-07T05:14:33.895Z,101973.59
2022-09-07T05:17:01.045Z,101980.34
2022-09-07T05:19:28.182Z,101966.78
2022-09-07T05:21:57.041Z,101961.72
2022-09-07T05:24:23.948Z,101967.91
2022-09-07T05:26:50.775Z,101956.50
2022-09-07T05:32:04.449Z,101944.69
2022-09-07T05:34:31.636Z,101951.72
2022-09-07T05:36:59.207Z,101947.16
2022-09-07T05:39:26.653Z,101940.78
2022-09-07T05:41:54.131Z,101937.75
2022-09-07T05:47:08.045Z,101946.00
2022-09-07T05:49:34.868Z,101931.34
2022-09-07T05:52:01.729Z,101925.81
2022-09-07T05:54:28.553Z,101928.25
2022-09-07T05:56:55.358Z,101935.34
2022-09-07T05:59:22.209Z,101940.78
2022-09-07T06:01:49.172Z,101928.06
2022-09-07T06:04:16.275Z,101925.53
2022-09-07T06:06:47.796Z,101923.69
2022-09-07T06:09:30.241Z,101933.91
2022-09-07T06:11:57.481Z,101929.69
2022-09-07T06:14:25.091Z,101933.34
2022-09-07T06:16:52.145Z,101932.50
2022-09-07T06:19:18.970Z,101935.50
2022-09-07T06:21:45.912Z,101936.25
2022-09-07T06:24:12.654Z,101935.50
2022-09-07T06:26:39.487Z,101939.66
2022-09-07T06:29:06.353Z,101936.53
2022-09-07T06:31:33.403Z,101924.53
2022-09-07T06:34:00.592Z,101933.09
2022-09-07T06:36:27.990Z,101923.41
2022-09-07T06:38:55.843Z,101921.75
2022-09-07T06:44:12.460Z,101916.25
2022-09-07T06:49:26.269Z,101914.47
2022-09-07T06:51:53.290Z,101919.66
2022-09-07T06:57:09.457Z,101920.38
2022-09-07T06:59:36.870Z,101921.22
2022-09-07T07:02:04.477Z,101908.75
2022-09-07T07:04:32.398Z,101924.81
2022-09-07T07:07:01.011Z,101921.97
2022-09-07T07:09:28.186Z,101924.09
2022-09-07T07:11:55.089Z,101921.78
2022-09-07T07:14:22.027Z,101898.88
2022-09-07T07:16:48.902Z,101914.50
2022-09-07T07:19:16.299Z,101913.38
2022-09-07T07:22:07.845Z,101918.56
2022-09-07T07:24:30.107Z,101914.84
2022-09-07T07:26:57.201Z,101915.13
2022-09-07T07:29:27.981Z,101919.97
2022-09-07T07:31:55.311Z,101923.66
2022-09-07T07:34:22.241Z,101904.47
2022-09-07T07:36:49.535Z,101910.50
2022-09-07T07:42:05.749Z,101919.25
2022-09-07T07:44:33.208Z,101915.78
2022-09-07T07:47:00.321Z,101916.03
2022-09-07T07:49:27.365Z,101922.28
2022-09-07T07:54:42.810Z,101918.75
2022-09-07T07:57:09.713Z,101911.34
2022-09-07T07:59:36.617Z,101910.22
2022-09-07T08:02:05.543Z,101910.91
2022-09-07T08:04:33.505Z,101911.06
2022-09-07T08:07:03.469Z,101923.00
2022-09-07T08:09:32.672Z,101909.81
2022-09-07T08:11:59.555Z,101907.97
2022-09-07T08:14:26.425Z,101898.72
2022-09-07T08:16:53.286Z,101899.00
2022-09-07T08:19:20.194Z,101903.63
2022-09-07T08:21:47.152Z,101903.38
2022-09-07T08:24:13.986Z,101896.66
2022-09-07T08:26:40.927Z,101904.06
2022-09-07T08:29:07.867Z,101905.44
2022-09-07T08:31:34.781Z,101886.28
2022-09-07T08:34:02.026Z,101896.53
2022-09-07T08:36:31.843Z,101899.66
2022-09-07T08:38:58.791Z,101893.66
2022-09-07T08:41:28.638Z,101900.66
2022-09-07T08:43:57.247Z,101888.47
2022-09-07T08:46:31.632Z,101897.50
2022-09-07T08:48:58.907Z,101896.31
2022-09-07T08:51:53.569Z,101904.16
2022-09-07T08:54:20.527Z,101904.25
2022-09-07T08:59:46.848Z,101890.22
2022-09-07T09:02:36.613Z,101886.47
2022-09-07T09:05:19.661Z,101887.00
2022-09-07T09:08:08.874Z,101881.16
2022-09-07T09:10:57.771Z,101884.44
2022-09-07T09:13:27.331Z,101875.75
2022-09-07T09:16:00.783Z,101876.09
2022-09-07T09:18:56.708Z,101874.47
2022-09-07T09:21:23.634Z,101865.94
2022-09-07T09:23:52.366Z,101861.50
2022-09-07T09:26:29.048Z,101863.31
2022-09-07T09:28:55.953Z,101869.41
2022-09-07T09:31:28.012Z,101873.09
2022-09-07T09:34:16.028Z,101866.47
2022-09-07T09:36:51.114Z,101856.94
2022-09-07T09:39:37.105Z,101848.88
2022-09-07T09:42:16.945Z,101848.47
2022-09-07T09:44:43.938Z,101841.41
2022-09-07T09:47:30.713Z,101837.56
2022-09-07T09:50:06.682Z,101840.78
2022-09-07T09:52:44.976Z,101837.66
2022-09-07T09:55:35.293Z,101830.66
2022-09-07T10:01:35.294Z,101815.44
2022-09-07T10:04:27.748Z,101811.41
2022-09-07T10:06:56.232Z,101800.84
2022-09-07T10:09:29.976Z,101805.47
2022-09-07T10:12:08.166Z,101795.22
2022-09-07T10:14:47.793Z,101796.13
2022-09-07T10:17:36.790Z,101802.13
2022-09-07T10:20:16.104Z,101802.81
2022-09-07T10:22:50.911Z,101793.81
2022-09-07T10:25:40.691Z,101793.34
2022-09-07T10:28:10.316Z,101800.84
2022-09-07T10:30:58.755Z,101796.16
2022-09-07T10:37:07.037Z,101798.16
2022-09-07T10:39:40.313Z,101791.88
2022-09-07T10:42:16.291Z,101794.47
2022-09-07T10:45:20.639Z,101790.97
2022-09-07T10:47:50.750Z,101800.28
2022-09-07T10:50:25.205Z,101789.47
2022-09-07T10:53:42.430Z,101787.50
2022-09-07T10:56:17.892Z,101789.44
2022-09-07T10:59:21.968Z,101788.69
2022-09-07T11:02:18.697Z,101780.13
2022-09-07T11:05:20.811Z,101783.06
2022-09-07T11:08:19.288Z,101776.44
2022-09-07T11:10:54.089Z,101783.06
2022-09-07T11:13:26.247Z,101784.66
2022-09-07T11:15:58.202Z,101787.38
2022-09-07T11:18:35.588Z,101774.25
2022-09-07T11:21:03.766Z,101751.97
2022-09-07T11:23:52.663Z,101765.59
2022-09-07T11:26:41.591Z,101766.69
2022-09-07T11:29:41.323Z,101757.72
2022-09-07T11:32:21.591Z,101766.13
2022-09-07T11:34:53.960Z,101762.44
2022-09-07T11:37:24.078Z,101752.28
2022-09-07T11:39:55.441Z,101750.91
2022-09-07T11:42:43.153Z,101749.50
2022-09-07T11:45:20.666Z,101749.19
2022-09-07T11:47:58.912Z,101761.44
2022-09-07T11:50:25.758Z,101759.53
2022-09-07T11:52:58.011Z,101753.78
2022-09-07T11:55:27.558Z,101765.84
2022-09-07T11:58:22.114Z,101756.03
2022-09-07T12:00:48.952Z,101749.75
2022-09-07T12:03:30.908Z,101740.31
2022-09-07T12:06:19.108Z,101741.38
2022-09-07T12:09:07.657Z,101742.13
2022-09-07T12:11:52.892Z,101738.88
2022-09-07T12:14:25.678Z,101729.13
2022-09-07T12:17:23.914Z,101733.25
2022-09-07T12:20:13.871Z,101742.44
2022-09-07T12:23:04.893Z,101738.97
2022-09-07T12:25:33.657Z,101730.44
2022-09-07T12:28:00.787Z,101726.66
2022-09-07T12:30:29.198Z,101721.22
2022-09-07T12:32:58.360Z,101732.38
2022-09-07T12:35:28.798Z,101736.97
2022-09-07T12:37:56.537Z,101727.25
2022-09-07T12:40:29.775Z,101726.63
2022-09-07T12:43:15.101Z,101732.69
2022-09-07T12:45:42.489Z,101725.63
2022-09-07T12:48:15.636Z,101724.44
2022-09-07T12:51:01.160Z,101721.22
2022-09-07T12:53:34.107Z,101722.66
2022-09-07T12:56:22.767Z,101721.09
2022-09-07T12:58:58.448Z,101717.03
2022-09-07T13:01:44.391Z,101722.41
2022-09-07T13:04:29.254Z,101725.69
2022-09-07T13:07:03.623Z,101717.38
2022-09-07T13:09:34.635Z,101715.94
2022-09-07T13:12:04.903Z,101715.91
2022-09-07T13:14:34.492Z,101712.41
2022-09-07T13:17:33.007Z,101708.56
2022-09-07T13:20:01.168Z,101704.91
2022-09-07T13:22:30.989Z,101712.56
2022-09-07T13:24:59.828Z,101710.66
2022-09-07T13:27:54.154Z,101711.63
2022-09-07T13:30:26.372Z,101699.66
2022-09-07T13:33:20.090Z,101703.31
2022-09-07T13:35:46.948Z,101706.59
2022-09-07T13:38:13.809Z,101703.84
2022-09-07T13:40:40.709Z,101690.34
2022-09-07T13:43:07.584Z,101690.34
2022-09-07T13:45:53.118Z,101695.06
2022-09-07T13:48:42.174Z,101709.28
2022-09-07T13:51:14.908Z,101694.97
2022-09-07T13:54:10.858Z,101699.69
2022-09-07T13:56:43.647Z,101709.66
2022-09-07T13:59:31.170Z,101701.19
2022-09-07T14:01:58.599Z,101700.47
2022-09-07T14:04:31.248Z,101704.94
2022-09-07T14:07:06.908Z,101702.00
2022-09-07T14:09:34.455Z,101697.41
2022-09-07T14:12:01.631Z,101694.03
2022-09-07T14:14:33.264Z,101696.59
2022-09-07T14:17:00.389Z,101695.50
2022-09-07T14:19:33.008Z,101699.50
2022-09-07T14:22:01.616Z,101700.94
2022-09-07T14:24:36.265Z,101703.06
2022-09-07T14:27:04.012Z,101704.53
2022-09-07T14:29:32.626Z,101699.72
2022-09-07T14:32:00.767Z,101687.28
2022-09-07T14:34:31.828Z,101696.84
2022-09-07T14:37:01.475Z,101693.19
2022-09-07T14:39:29.918Z,101695.19
2022-09-07T14:41:57.666Z,101687.06
2022-09-07T14:44:42.982Z,101688.72
2022-09-07T14:47:18.941Z,101698.13
2022-09-07T14:49:52.824Z,101703.31
2022-09-07T14:52:44.149Z,101700.78
2022-09-07T14:55:28.848Z,101688.66
2022-09-07T14:58:08.534Z,101694.97
2022-09-07T15:00:35.505Z,101682.09
2022-09-07T15:03:35.651Z,101693.03
2022-09-07T15:06:03.072Z,101688.72
2022-09-07T15:08:45.938Z,101690.09
2022-09-07T15:11:45.315Z,101691.63
2022-09-07T15:14:15.203Z,101683.19
2022-09-07T15:16:43.272Z,101684.38
2022-09-07T15:19:16.572Z,101680.31
2022-09-07T15:21:43.669Z,101670.34
2022-09-07T15:24:10.705Z,101672.81
2022-09-07T15:29:29.922Z,101671.78
2022-09-07T15:32:04.047Z,101672.28
2022-09-07T15:34:34.853Z,101674.25
2022-09-07T15:37:02.719Z,101685.69
2022-09-07T15:39:31.367Z,101674.94
2022-09-07T15:42:00.513Z,101662.88
2022-09-07T15:44:45.390Z,101670.81
2022-09-07T15:49:59.433Z,101672.47
2022-09-07T15:52:26.410Z,101670.69
2022-09-07T15:54:53.351Z,101675.63
2022-09-07T16:00:08.146Z,101674.47
2022-09-07T16:05:26.150Z,101682.94
2022-09-07T16:10:45.847Z,101684.25
2022-09-07T16:13:16.929Z,101681.94
2022-09-07T16:15:47.552Z,101678.56
2022-09-07T16:18:17.232Z,101666.91
2022-09-07T16:20:44.492Z,101680.91
2022-09-07T16:23:13.993Z,101676.91
2022-09-07T16:25:42.453Z,101669.56
2022-09-07T16:28:09.487Z,101678.91
2022-09-07T16:30:39.527Z,101666.59
2022-09-07T16:33:06.627Z,101667.69
2022-09-07T16:35:33.566Z,101676.22
2022-09-07T16:40:47.275Z,101675.19
2022-09-07T16:43:14.275Z,101674.94
2022-09-07T16:48:28.052Z,101683.34
2022-09-07T16:51:01.131Z,101688.53
2022-09-07T16:53:29.779Z,101682.00
2022-09-07T16:56:04.045Z,101687.88
2022-09-07T16:58:35.999Z,101690.19
2022-09-07T17:01:04.329Z,101688.91
2022-09-07T17:03:31.730Z,101685.41
2022-09-07T17:06:02.146Z,101689.50
2022-09-07T17:08:29.410Z,101680.78
2022-09-07T17:11:11.893Z,101688.59
2022-09-07T17:13:39.386Z,101687.94
2022-09-07T17:16:13.812Z,101679.47
2022-09-07T17:21:33.227Z,101695.09
2022-09-07T17:24:01.677Z,101698.66
2022-09-07T17:26:30.871Z,101697.69
2022-09-07T17:29:00.288Z,101693.22
2022-09-07T17:34:16.413Z,101690.97
2022-09-07T17:36:43.291Z,101679.00
2022-09-07T17:39:14.952Z,101688.56
2022-09-07T17:41:43.569Z,101698.50
2022-09-07T17:44:10.518Z,101699.06
2022-09-07T17:46:37.369Z,101714.66
2022-09-07T17:49:04.332Z,101710.38
2022-09-07T17:51:32.034Z,101695.00
2022-09-07T17:54:01.944Z,101698.59
2022-09-07T17:56:28.952Z,101702.59
2022-09-07T18:00:10.582Z,101700.22
2022-09-07T18:01:43.147Z,101702.81
2022-09-07T18:04:10.819Z,101708.31
2022-09-07T18:06:37.762Z,101700.84
2022-09-07T18:09:05.046Z,101700.00
2022-09-07T18:11:49.072Z,101697.88
2022-09-07T18:14:16.776Z,101694.75
2022-09-07T18:16:44.402Z,101703.97
2022-09-07T18:19:11.709Z,101707.00
2022-09-07T18:21:39.325Z,101707.00
2022-09-07T18:24:11.764Z,101704.28
2022-09-07T18:26:40.208Z,101702.56
2022-09-07T18:29:18.653Z,101703.44
2022-09-07T18:31:54.309Z,101703.47
2022-09-07T18:34:21.310Z,101703.13
2022-09-07T18:36:48.333Z,101711.34
2022-09-07T18:39:15.452Z,101708.50
2022-09-07T18:41:42.447Z,101703.41
2022-09-07T18:46:56.334Z,101710.00
2022-09-07T18:49:23.588Z,101714.16
2022-09-07T18:54:38.836Z,101703.00
2022-09-07T18:57:07.072Z,101701.56
2022-09-07T18:59:34.255Z,101709.66
2022-09-07T19:02:05.011Z,101712.88
2022-09-07T19:07:28.832Z,101715.97
2022-09-07T19:09:56.852Z,101701.22
2022-09-07T19:12:24.593Z,101713.59
2022-09-07T19:14:51.781Z,101687.75
2022-09-07T19:17:19.291Z,101708.94
2022-09-07T19:19:46.171Z,101710.94
2022-09-07T19:22:13.138Z,101704.28
2022-09-07T19:24:40.096Z,101710.47
2022-09-07T19:27:07.392Z,101705.25
2022-09-07T19:29:34.572Z,101708.69
2022-09-07T19:32:07.956Z,101705.34
2022-09-07T19:34:38.993Z,101716.16
2022-09-07T19:37:08.158Z,101706.53
2022-09-07T19:39:35.203Z,101713.03
2022-09-07T19:42:03.177Z,101702.34
2022-09-07T19:44:30.081Z,101715.03
2022-09-07T19:46:57.050Z,101718.25
2022-09-07T19:49:23.884Z,101712.88
2022-09-07T19:51:52.189Z,101714.50
2022-09-07T19:54:19.235Z,101716.19
2022-09-07T19:56:46.193Z,101714.94
2022-09-07T19:59:13.354Z,101720.38
2022-09-07T20:01:40.856Z,101715.81
2022-09-07T20:04:10.671Z,101727.22
2022-09-07T20:06:38.592Z,101727.31
2022-09-07T20:09:05.826Z,101730.19
2022-09-07T20:11:33.087Z,101720.88
2022-09-07T20:13:59.952Z,101734.25
2022-09-07T20:16:28.226Z,101727.59
2022-09-07T20:18:55.366Z,101734.25
2022-09-07T20:21:23.116Z,101728.41
2022-09-07T20:23:50.258Z,101733.41
2022-09-07T20:26:18.392Z,101729.13
2022-09-07T20:28:45.428Z,101722.56
2022-09-07T20:31:16.408Z,101729.69
2022-09-07T20:33:44.332Z,101722.88
2022-09-07T20:36:16.134Z,101723.13
2022-09-07T20:38:44.529Z,101739.13
2022-09-07T20:41:16.324Z,101747.19
2022-09-07T20:43:43.244Z,101736.31
2022-09-07T20:46:10.109Z,101742.16
2022-09-07T20:48:37.637Z,101747.13
2022-09-07T20:51:08.298Z,101745.84
2022-09-07T20:53:35.512Z,101746.78
2022-09-07T20:56:04.714Z,101744.28
2022-09-07T20:58:31.629Z,101738.78
2022-09-07T21:00:58.643Z,101747.34
2022-09-07T21:03:25.646Z,101741.00
2022-09-07T21:05:52.583Z,101748.84
2022-09-07T21:08:19.537Z,101747.88
2022-09-07T21:10:46.992Z,101745.38
2022-09-07T21:13:14.270Z,101746.44
2022-09-07T21:15:42.094Z,101735.06
2022-09-07T21:18:15.429Z,101743.00
2022-09-07T21:21:18.382Z,101737.69
2022-09-07T21:23:41.509Z,101735.16
2022-09-07T21:26:08.539Z,101741.00
2022-09-07T21:28:35.369Z,101740.06
2022-09-07T21:31:06.719Z,101735.69
2022-09-07T21:33:35.068Z,101733.38
2022-09-07T21:36:14.058Z,101736.72
2022-09-07T21:38:41.348Z,101734.22
2022-09-07T21:41:08.732Z,101738.50
2022-09-07T21:43:35.793Z,101741.34
2022-09-07T21:46:10.218Z,101733.84
2022-09-07T21:48:37.202Z,101745.72
2022-09-07T21:51:04.667Z,101751.59
2022-09-07T21:53:31.813Z,101742.41
2022-09-07T21:56:00.019Z,101737.50
2022-09-07T21:58:28.063Z,101747.09
2022-09-07T22:00:55.687Z,101743.88
2022-09-07T22:03:22.968Z,101745.44
2022-09-07T22:05:49.895Z,101754.94
2022-09-07T22:08:16.945Z,101747.34
2022-09-07T22:10:44.311Z,101734.56
2022-09-07T22:13:11.544Z,101736.75
2022-09-07T22:15:39.887Z,101747.53
2022-09-07T22:18:07.971Z,101743.97
2022-09-07T22:20:35.033Z,101743.47
2022-09-07T22:23:01.975Z,101726.13
2022-09-07T22:25:28.868Z,101733.03
2022-09-07T22:27:55.804Z,101739.19
2022-09-07T22:30:22.928Z,101736.66
2022-09-07T22:32:50.373Z,101736.06
2022-09-07T22:35:17.843Z,101735.44
2022-09-07T22:37:45.352Z,101721.75
2022-09-07T22:40:15.088Z,101723.81
2022-09-07T22:42:42.125Z,101720.50
2022-09-07T22:45:09.532Z,101717.97
2022-09-07T22:47:36.416Z,101713.50
2022-09-07T22:50:03.369Z,101682.38
2022-09-07T22:52:30.228Z,101702.63
2022-09-07T22:54:57.102Z,101708.38
2022-09-07T22:57:23.997Z,101716.81
2022-09-07T22:59:51.745Z,101706.81
2022-09-07T23:02:18.586Z,101716.09
2022-09-07T23:04:45.646Z,101715.28
2022-09-07T23:07:12.590Z,101721.66
2022-09-07T23:09:39.490Z,101709.91
2022-09-07T23:12:06.731Z,101704.38
2022-09-07T23:14:33.847Z,101716.63
2022-09-07T23:17:00.695Z,101701.56
2022-09-07T23:19:27.787Z,101708.66
2022-09-07T23:21:55.268Z,101714.75
2022-09-07T23:24:22.120Z,101725.81
2022-09-07T23:26:49.010Z,101694.59
2022-09-07T23:29:15.973Z,101719.63
2022-09-07T23:31:43.053Z,101706.91
2022-09-07T23:34:10.179Z,101705.84
2022-09-07T23:36:37.216Z,101708.78
2022-09-07T23:39:04.265Z,101705.25
2022-09-07T23:41:31.227Z,101711.72
2022-09-07T23:43:58.952Z,101720.28
2022-09-07T23:46:26.050Z,101705.41
2022-09-07T23:48:53.096Z,101704.69
2022-09-07T23:51:23.768Z,101714.72
2022-09-07T23:53:52.009Z,101710.97
2022-09-07T23:56:19.167Z,101710.66
2022-09-07T23:58:46.089Z,101713.88
